Terminal Aerodrome Forecast
Issued by NWS

Home | Current Version | Previous Version | Text Only | Print | Product List | Glossary On
Versions: 1 2 3 4 5 6 7 8 9 10 11 12 13 14
824
FTUS45 KVEF 200520
TAFEED
TAF
KEED 200520Z 2006/2106 28011G20KT P6SM SCT100
     FM201200 35008KT P6SM FEW100
     FM210300 26005KT P6SM SKC=

USA.gov is the U.S. government's official web portal to all federal, state and local government web resources and services.